KLM1310 EPWA-EHAM
Flight info
| Callsign | KLM1310 |
|---|---|
| Flight time | N/A |
| Altitude | 36000 |
| Route | LOLSI T174 INDIG DCT GOVEN DCT NORKU |
| Aircraft | B738/M-SDE2E3FGHIRWXY/LB1 |
Departure
| Time | 2026-05-07 18:33 |
|---|---|
| Airport | Warsaw Chopin Airport (EPWA) |
Arrival
| Time | N/A |
|---|---|
| Airport | Amsterdam Airport Schiphol (EHAM) |
| Time | Latitude | Longitude | Altitude | Speed | Heading |
|---|---|---|---|---|---|
| 2026-05-07 18:04 | 52.16956 | 20.97189 | 369 ft | 0 kts | 68° |
| 2026-05-07 18:26 | 52.16952 | 20.97174 | 369 ft | 5 kts | 68° |
| 2026-05-07 18:26 | 52.16946 | 20.97123 | 369 ft | 5 kts | 90° |
| 2026-05-07 18:27 | 52.16952 | 20.97074 | 369 ft | 5 kts | 112° |
| 2026-05-07 18:27 | 52.16967 | 20.97036 | 369 ft | 2 kts | 147° |
| 2026-05-07 18:27 | 52.16972 | 20.97031 | 369 ft | 0 kts | 158° |
| 2026-05-07 18:28 | 52.16930 | 20.97049 | 369 ft | 15 kts | 162° |
| 2026-05-07 18:28 | 52.16841 | 20.97156 | 369 ft | 14 kts | 150° |
| 2026-05-07 18:28 | 52.16774 | 20.97217 | 369 ft | 8 kts | 153° |
| 2026-05-07 18:28 | 52.16680 | 20.97240 | 369 ft | 20 kts | 186° |
| 2026-05-07 18:29 | 52.16604 | 20.97280 | 369 ft | 9 kts | 123° |
| 2026-05-07 18:29 | 52.16584 | 20.97336 | 369 ft | 2 kts | 116° |
| 2026-05-07 18:29 | 52.16572 | 20.97378 | 369 ft | 9 kts | 115° |
| 2026-05-07 18:29 | 52.16529 | 20.97530 | 369 ft | 18 kts | 114° |
| 2026-05-07 18:30 | 52.16484 | 20.97691 | 369 ft | 13 kts | 115° |
| 2026-05-07 18:30 | 52.16452 | 20.97801 | 369 ft | 12 kts | 115° |
| 2026-05-07 18:30 | 52.16399 | 20.97988 | 369 ft | 23 kts | 115° |
| 2026-05-07 18:30 | 52.16323 | 20.98199 | 369 ft | 17 kts | 138° |
| 2026-05-07 18:31 | 52.16247 | 20.98233 | 369 ft | 9 kts | 234° |
| 2026-05-07 18:31 | 52.16236 | 20.98171 | 369 ft | 6 kts | 260° |
| 2026-05-07 18:31 | 52.16227 | 20.98076 | 369 ft | 11 kts | 264° |
| 2026-05-07 18:31 | 52.16235 | 20.97934 | 369 ft | 10 kts | 294° |
| 2026-05-07 18:32 | 52.16241 | 20.97912 | 369 ft | 0 kts | 295° |
| 2026-05-07 18:32 | 52.16248 | 20.97890 | 369 ft | 9 kts | 295° |
| 2026-05-07 18:32 | 52.16302 | 20.97701 | 369 ft | 27 kts | 295° |
| 2026-05-07 18:32 | 52.16455 | 20.97153 | 369 ft | 91 kts | 296° |
| 2026-05-07 18:33 | 52.16813 | 20.95844 | 385 ft | 159 kts | 295° |
| 2026-05-07 18:33 | 52.17286 | 20.94106 | 1099 ft | 168 kts | 295° |
| 2026-05-07 18:33 | 52.17748 | 20.92420 | 2204 ft | 163 kts | 296° |
| 2026-05-07 18:33 | 52.18168 | 20.90597 | 2782 ft | 185 kts | 285° |
| 2026-05-07 18:34 | 52.18277 | 20.88358 | 3156 ft | 214 kts | 271° |
| 2026-05-07 18:34 | 52.18174 | 20.85790 | 3509 ft | 239 kts | 266° |
| 2026-05-07 18:34 | 52.18173 | 20.83028 | 4246 ft | 244 kts | 278° |
| 2026-05-07 18:34 | 52.18380 | 20.80296 | 5067 ft | 249 kts | 276° |
| 2026-05-07 18:35 | 52.18400 | 20.77445 | 5951 ft | 252 kts | 272° |
| 2026-05-07 18:35 | 52.18388 | 20.74601 | 6975 ft | 249 kts | 272° |
| 2026-05-07 18:35 | 52.18373 | 20.71764 | 7883 ft | 253 kts | 271° |
| 2026-05-07 18:35 | 52.18356 | 20.68842 | 8508 ft | 267 kts | 271° |
| 2026-05-07 18:36 | 52.18337 | 20.65738 | 9250 ft | 276 kts | 271° |
| 2026-05-07 18:36 | 52.18316 | 20.62585 | 10078 ft | 281 kts | 272° |
| 2026-05-07 18:36 | 52.18294 | 20.59360 | 10826 ft | 290 kts | 272° |
| 2026-05-07 18:36 | 52.18270 | 20.55996 | 11380 ft | 305 kts | 271° |
| 2026-05-07 18:37 | 52.18245 | 20.52444 | 11877 ft | 321 kts | 270° |
| 2026-05-07 18:37 | 52.18246 | 20.48717 | 12452 ft | 333 kts | 270° |
| 2026-05-07 18:37 | 52.18252 | 20.44902 | 13189 ft | 338 kts | 270° |
| 2026-05-07 18:37 | 52.18255 | 20.41076 | 14001 ft | 341 kts | 270° |
| 2026-05-07 18:38 | 52.18255 | 20.37197 | 14798 ft | 344 kts | 269° |
| 2026-05-07 18:38 | 52.18254 | 20.33278 | 15501 ft | 349 kts | 269° |
| 2026-05-07 18:38 | 52.18250 | 20.29317 | 16252 ft | 352 kts | 269° |
| 2026-05-07 18:38 | 52.18246 | 20.26659 | 16743 ft | 354 kts | 269° |
| 2026-05-07 18:39 | 52.18238 | 20.22576 | 17445 ft | 357 kts | 269° |
| 2026-05-07 18:39 | 52.18225 | 20.17218 | 18352 ft | 361 kts | 270° |
| 2026-05-07 18:39 | 52.18218 | 20.14471 | 18794 ft | 364 kts | 270° |
| 2026-05-07 18:39 | 52.18200 | 20.08921 | 19652 ft | 368 kts | 269° |
| 2026-05-07 18:40 | 52.18189 | 20.06163 | 20185 ft | 367 kts | 268° |
| 2026-05-07 18:40 | 52.18171 | 20.01968 | 20749 ft | 372 kts | 268° |
| 2026-05-07 18:40 | 52.18153 | 19.97778 | 21436 ft | 372 kts | 268° |
| 2026-05-07 18:40 | 52.18160 | 19.93556 | 22069 ft | 373 kts | 269° |
| 2026-05-07 18:41 | 52.18167 | 19.89314 | 22688 ft | 375 kts | 269° |
| 2026-05-07 18:41 | 52.18169 | 19.85021 | 23309 ft | 375 kts | 271° |
| 2026-05-07 18:41 | 52.18166 | 19.80769 | 23856 ft | 377 kts | 271° |
| 2026-05-07 18:41 | 52.18160 | 19.76487 | 24405 ft | 379 kts | 269° |
| 2026-05-07 18:42 | 52.18151 | 19.72231 | 24796 ft | 385 kts | 266° |
| 2026-05-07 18:42 | 52.18138 | 19.67758 | 24915 ft | 397 kts | 265° |
| 2026-05-07 18:42 | 52.18122 | 19.63257 | 25448 ft | 396 kts | 265° |
| 2026-05-07 18:42 | 52.18102 | 19.58763 | 25993 ft | 398 kts | 265° |
| 2026-05-07 18:43 | 52.18081 | 19.54259 | 26432 ft | 400 kts | 265° |
| 2026-05-07 18:43 | 52.18057 | 19.49722 | 26900 ft | 401 kts | 265° |
| 2026-05-07 18:43 | 52.18030 | 19.45181 | 27334 ft | 403 kts | 265° |
| 2026-05-07 18:43 | 52.18002 | 19.40613 | 27764 ft | 404 kts | 265° |
| 2026-05-07 18:44 | 52.17971 | 19.36024 | 28162 ft | 406 kts | 265° |
| 2026-05-07 18:44 | 52.17937 | 19.31363 | 28578 ft | 407 kts | 265° |
| 2026-05-07 18:44 | 52.17902 | 19.26758 | 29019 ft | 407 kts | 265° |
| 2026-05-07 18:44 | 52.17867 | 19.22324 | 29369 ft | 409 kts | 265° |
| 2026-05-07 18:45 | 52.17825 | 19.17410 | 29688 ft | 412 kts | 265° |
| 2026-05-07 18:45 | 52.17784 | 19.12758 | 30042 ft | 413 kts | 265° |
| 2026-05-07 18:45 | 52.17741 | 19.08093 | 30451 ft | 412 kts | 264° |
| 2026-05-07 18:46 | 52.17647 | 18.98565 | 30591 ft | 429 kts | 263° |
| 2026-05-07 18:46 | 52.17595 | 18.93617 | 30850 ft | 432 kts | 263° |
| 2026-05-07 18:46 | 52.17542 | 18.88810 | 31300 ft | 430 kts | 263° |
| 2026-05-07 18:46 | 52.17486 | 18.83891 | 31713 ft | 429 kts | 263° |
| 2026-05-07 18:47 | 52.17430 | 18.79106 | 32074 ft | 429 kts | 263° |
| 2026-05-07 18:47 | 52.17370 | 18.74186 | 32455 ft | 428 kts | 263° |
| 2026-05-07 18:47 | 52.17309 | 18.69367 | 32808 ft | 428 kts | 263° |
| 2026-05-07 18:47 | 52.17247 | 18.64543 | 33154 ft | 428 kts | 263° |
| 2026-05-07 18:48 | 52.17182 | 18.59681 | 33487 ft | 428 kts | 263° |
| 2026-05-07 18:48 | 52.17115 | 18.54859 | 33852 ft | 427 kts | 263° |
| 2026-05-07 18:48 | 52.17046 | 18.50026 | 34193 ft | 427 kts | 264° |
| 2026-05-07 18:48 | 52.16975 | 18.45150 | 34489 ft | 427 kts | 264° |
| 2026-05-07 18:49 | 52.16903 | 18.40324 | 34815 ft | 427 kts | 264° |
| 2026-05-07 18:49 | 52.16828 | 18.35489 | 35135 ft | 427 kts | 264° |
| 2026-05-07 18:49 | 52.16751 | 18.30664 | 35439 ft | 426 kts | 264° |
| 2026-05-07 18:49 | 52.16673 | 18.25836 | 35739 ft | 427 kts | 264° |
| 2026-05-07 18:50 | 52.16592 | 18.21004 | 35873 ft | 430 kts | 264° |
| 2026-05-07 18:50 | 52.16508 | 18.16063 | 36015 ft | 433 kts | 264° |
| 2026-05-07 18:50 | 52.16422 | 18.11155 | 36021 ft | 434 kts | 264° |
| 2026-05-07 18:51 | 52.16244 | 18.01356 | 36028 ft | 430 kts | 264° |
| 2026-05-07 18:51 | 52.16059 | 17.91562 | 36035 ft | 429 kts | 264° |
| 2026-05-07 18:52 | 52.15867 | 17.81852 | 36034 ft | 430 kts | 264° |
| 2026-05-07 18:52 | 52.15665 | 17.72058 | 36041 ft | 431 kts | 264° |
| 2026-05-07 18:53 | 52.15457 | 17.62318 | 36041 ft | 431 kts | 264° |
| 2026-05-07 18:53 | 52.15240 | 17.52598 | 36047 ft | 431 kts | 264° |
| 2026-05-07 18:54 | 52.15010 | 17.42608 | 36054 ft | 432 kts | 264° |
| 2026-05-07 18:54 | 52.14776 | 17.32850 | 36055 ft | 432 kts | 264° |
| 2026-05-07 18:55 | 52.14533 | 17.23003 | 36057 ft | 432 kts | 264° |
| 2026-05-07 18:55 | 52.14283 | 17.13239 | 36059 ft | 432 kts | 264° |
| 2026-05-07 18:56 | 52.14024 | 17.03414 | 36057 ft | 432 kts | 264° |
| 2026-05-07 18:56 | 52.13758 | 16.93672 | 36057 ft | 432 kts | 264° |
| 2026-05-07 18:57 | 52.13485 | 16.83927 | 36057 ft | 432 kts | 264° |
| 2026-05-07 18:57 | 52.13200 | 16.74075 | 36058 ft | 433 kts | 264° |
| 2026-05-07 18:58 | 52.12912 | 16.64381 | 36059 ft | 432 kts | 264° |
| 2026-05-07 18:58 | 52.12612 | 16.54557 | 36061 ft | 433 kts | 264° |
| 2026-05-07 18:59 | 52.12306 | 16.44785 | 36063 ft | 433 kts | 264° |
| 2026-05-07 18:59 | 52.11992 | 16.35051 | 36067 ft | 433 kts | 264° |
| 2026-05-07 19:00 | 52.11725 | 16.26920 | 36072 ft | 433 kts | 264° |
| 2026-05-07 19:00 | 52.11339 | 16.15511 | 36076 ft | 434 kts | 264° |
| 2026-05-07 19:01 | 52.10997 | 16.05648 | 36080 ft | 434 kts | 264° |
| 2026-05-07 19:01 | 52.10649 | 15.95838 | 36080 ft | 434 kts | 264° |
| 2026-05-07 19:02 | 52.10295 | 15.86065 | 36081 ft | 434 kts | 264° |
| 2026-05-07 19:02 | 52.09931 | 15.76261 | 36082 ft | 434 kts | 264° |
| 2026-05-07 19:03 | 52.09560 | 15.66494 | 36080 ft | 434 kts | 264° |
| 2026-05-07 19:03 | 52.09179 | 15.56671 | 36079 ft | 434 kts | 264° |
| 2026-05-07 19:04 | 52.08792 | 15.46889 | 36086 ft | 437 kts | 264° |
| 2026-05-07 19:04 | 52.08393 | 15.37008 | 36091 ft | 438 kts | 264° |
| 2026-05-07 19:05 | 52.07994 | 15.27132 | 36093 ft | 439 kts | 264° |
| 2026-05-07 19:05 | 52.07644 | 15.17244 | 36099 ft | 441 kts | 264° |
| 2026-05-07 19:06 | 52.07221 | 15.07316 | 36102 ft | 441 kts | 264° |
| 2026-05-07 19:06 | 52.06555 | 14.92431 | 36110 ft | 445 kts | 264° |
| 2026-05-07 19:07 | 52.06096 | 14.82281 | 36112 ft | 446 kts | 264° |
| 2026-05-07 19:07 | 52.06006 | 14.72151 | 36113 ft | 447 kts | 272° |
| 2026-05-07 19:08 | 52.06499 | 14.62117 | 36112 ft | 450 kts | 273° |
| 2026-05-07 19:08 | 52.06919 | 14.53675 | 36112 ft | 448 kts | 272° |